createdAt,value
2022-10-12T00:00:39.386Z,66.47
2022-10-12T00:03:07.193Z,66.60
2022-10-12T00:05:34.939Z,66.27
2022-10-12T00:08:02.632Z,66.42
2022-10-12T00:10:30.332Z,66.08
2022-10-12T00:12:59.770Z,66.15
2022-10-12T00:15:27.683Z,66.32
2022-10-12T00:17:55.368Z,66.34
2022-10-12T00:20:23.020Z,66.12
2022-10-12T00:22:50.738Z,66.28
2022-10-12T00:25:18.504Z,66.21
2022-10-12T00:27:46.496Z,66.31
2022-10-12T00:30:15.700Z,66.37
2022-10-12T00:32:43.390Z,66.16
2022-10-12T00:35:11.045Z,66.23
2022-10-12T00:37:39.197Z,65.66
2022-10-12T00:40:08.293Z,66.34
2022-10-12T00:42:35.884Z,65.65
2022-10-12T00:45:03.562Z,66.09
2022-10-12T00:47:35.210Z,65.95
2022-10-12T00:50:07.599Z,65.98
2022-10-12T00:52:40.651Z,65.83
2022-10-12T00:55:09.687Z,65.92
2022-10-12T00:57:40.084Z,66.00
2022-10-12T01:00:12.004Z,65.93
2022-10-12T01:02:43.026Z,65.82
2022-10-12T01:05:11.769Z,66.48
2022-10-12T01:07:39.884Z,66.22
2022-10-12T01:10:08.457Z,66.09
2022-10-12T01:12:36.598Z,66.12
2022-10-12T01:15:05.208Z,66.24
2022-10-12T01:17:39.621Z,66.11
2022-10-12T01:20:49.452Z,66.07
2022-10-12T01:23:58.210Z,66.36
2022-10-12T01:26:48.327Z,66.16
2022-10-12T01:29:26.170Z,66.41
2022-10-12T01:31:59.751Z,66.13
2022-10-12T01:34:32.206Z,66.61
2022-10-12T01:37:05.409Z,66.46
2022-10-12T01:39:36.799Z,66.46
2022-10-12T01:42:08.010Z,66.20
2022-10-12T01:44:39.235Z,66.37
2022-10-12T01:47:11.680Z,66.39
2022-10-12T01:49:39.377Z,66.41
2022-10-12T01:52:20.634Z,66.50
2022-10-12T01:54:56.429Z,66.03
2022-10-12T01:57:30.211Z,65.94
2022-10-12T02:00:08.157Z,66.14
2022-10-12T02:02:44.529Z,66.23
2022-10-12T02:05:16.494Z,66.47
2022-10-12T02:07:49.129Z,66.34
2022-10-12T02:10:19.648Z,66.05
2022-10-12T02:12:48.183Z,66.44
2022-10-12T02:15:17.208Z,66.25
2022-10-12T02:17:49.380Z,66.19
2022-10-12T02:20:18.490Z,66.07
2022-10-12T02:22:48.447Z,66.27
2022-10-12T02:25:18.856Z,66.16
2022-10-12T02:27:49.195Z,66.23
2022-10-12T02:30:20.933Z,66.53
2022-10-12T02:32:56.738Z,66.25
2022-10-12T02:35:29.437Z,66.20
2022-10-12T02:38:01.791Z,66.57
2022-10-12T02:40:33.414Z,66.62
2022-10-12T02:43:10.359Z,66.46
2022-10-12T02:45:39.975Z,66.45
2022-10-12T02:48:10.561Z,66.39
2022-10-12T02:50:38.514Z,66.37
2022-10-12T02:53:06.438Z,66.75
2022-10-12T02:55:38.979Z,66.75
2022-10-12T02:58:06.686Z,66.38
2022-10-12T03:00:35.057Z,66.22
2022-10-12T03:03:02.718Z,66.24
2022-10-12T03:05:31.753Z,66.45
2022-10-12T03:07:59.424Z,66.23
2022-10-12T03:10:27.134Z,66.11
2022-10-12T03:12:55.465Z,66.05
2022-10-12T03:15:23.085Z,66.46
2022-10-12T03:17:50.995Z,66.41
2022-10-12T03:20:18.602Z,66.29
2022-10-12T03:22:50.131Z,66.33
2022-10-12T03:25:18.077Z,66.11
2022-10-12T03:27:45.791Z,66.02
2022-10-12T03:30:14.702Z,66.27
2022-10-12T03:32:42.494Z,66.20
2022-10-12T03:35:10.812Z,66.27
2022-10-12T03:37:39.061Z,66.28
2022-10-12T03:40:10.571Z,66.27
2022-10-12T03:42:38.226Z,66.39
2022-10-12T03:45:06.589Z,66.33
2022-10-12T03:47:34.315Z,66.27
2022-10-12T03:50:01.938Z,66.61
2022-10-12T03:52:29.564Z,66.43
2022-10-12T03:54:57.270Z,66.35
2022-10-12T03:57:26.431Z,66.50
2022-10-12T03:59:54.057Z,66.62
2022-10-12T04:02:21.939Z,66.39
2022-10-12T04:04:49.556Z,66.17
2022-10-12T04:07:17.186Z,66.33
2022-10-12T04:09:45.063Z,66.26
2022-10-12T04:12:12.795Z,66.24
2022-10-12T04:14:41.845Z,66.48
2022-10-12T04:17:09.521Z,66.28
2022-10-12T04:19:37.147Z,66.37
2022-10-12T04:22:04.862Z,66.21
2022-10-12T04:24:32.493Z,66.26
2022-10-12T04:27:00.194Z,66.16
2022-10-12T04:29:27.853Z,66.38
2022-10-12T04:31:56.932Z,66.74
2022-10-12T04:34:24.588Z,66.57
2022-10-12T04:36:52.213Z,66.54
2022-10-12T04:39:19.874Z,66.63
2022-10-12T04:41:47.591Z,66.23
2022-10-12T04:44:15.366Z,66.40
2022-10-12T04:46:42.942Z,66.25
2022-10-12T04:49:12.482Z,66.09
2022-10-12T04:51:40.208Z,65.86
2022-10-12T04:54:07.862Z,66.37
2022-10-12T04:56:35.496Z,66.59
2022-10-12T04:59:03.142Z,66.40
2022-10-12T05:01:30.928Z,66.54
2022-10-12T05:04:00.192Z,66.29
2022-10-12T05:06:29.264Z,66.50
2022-10-12T05:08:56.972Z,66.48
2022-10-12T05:11:24.678Z,65.91
2022-10-12T05:13:52.367Z,66.01
2022-10-12T05:16:20.032Z,65.93
2022-10-12T05:18:47.750Z,66.26
2022-10-12T05:21:15.429Z,65.91
2022-10-12T05:23:44.502Z,65.93
2022-10-12T05:26:12.225Z,65.92
2022-10-12T05:28:41.262Z,65.87
2022-10-12T05:31:09.383Z,66.02
2022-10-12T05:33:36.988Z,66.00
2022-10-12T05:36:05.163Z,66.17
2022-10-12T05:38:32.830Z,66.13
2022-10-12T05:41:01.867Z,65.90
2022-10-12T05:43:29.881Z,66.07
2022-10-12T05:45:57.586Z,65.97
2022-10-12T05:48:25.367Z,66.24
2022-10-12T05:50:54.120Z,65.91
2022-10-12T05:53:21.945Z,65.92
2022-10-12T05:55:54.073Z,65.47
2022-10-12T05:58:23.509Z,65.54
2022-10-12T06:00:51.257Z,65.40
2022-10-12T06:03:21.087Z,65.51
2022-10-12T06:05:50.619Z,65.42
2022-10-12T06:08:18.233Z,65.63
2022-10-12T06:10:48.302Z,65.34
2022-10-12T06:13:17.996Z,65.54
2022-10-12T06:15:47.897Z,65.66
2022-10-12T06:18:16.214Z,65.63
2022-10-12T06:20:47.440Z,65.58
2022-10-12T06:23:15.220Z,65.99
2022-10-12T06:25:43.116Z,65.94
2022-10-12T06:28:10.828Z,65.89
2022-10-12T06:30:38.479Z,66.09
2022-10-12T06:33:07.553Z,65.88
2022-10-12T06:35:35.336Z,66.08
2022-10-12T06:38:03.021Z,66.21
2022-10-12T06:40:30.703Z,66.43
2022-10-12T06:43:02.599Z,66.59
2022-10-12T06:45:30.722Z,66.96
2022-10-12T06:47:58.566Z,67.00
2022-10-12T06:50:28.149Z,67.41
2022-10-12T06:52:56.168Z,67.61
2022-10-12T06:55:23.779Z,67.74
2022-10-12T06:57:51.544Z,67.53
2022-10-12T07:00:19.463Z,67.64
2022-10-12T07:02:50.006Z,67.52
2022-10-12T07:05:17.989Z,67.67
2022-10-12T07:07:47.174Z,68.21
2022-10-12T07:10:14.942Z,68.33
2022-10-12T07:12:42.813Z,68.73
2022-10-12T07:15:11.450Z,68.90
2022-10-12T07:17:39.535Z,69.10
2022-10-12T07:20:08.811Z,69.52
2022-10-12T07:22:36.490Z,70.22
2022-10-12T07:25:06.315Z,70.56
2022-10-12T07:27:33.982Z,70.70
2022-10-12T07:30:02.541Z,70.89
2022-10-12T07:32:30.244Z,71.88
2022-10-12T07:34:58.333Z,72.06
2022-10-12T07:37:26.063Z,72.12
2022-10-12T07:39:57.191Z,72.13
2022-10-12T07:42:26.401Z,71.88
2022-10-12T07:44:54.063Z,72.27
2022-10-12T07:47:21.751Z,71.87
2022-10-12T07:49:49.508Z,71.96
2022-10-12T07:52:17.187Z,71.89
2022-10-12T07:54:44.880Z,71.99
2022-10-12T07:57:12.738Z,72.06
2022-10-12T07:59:41.819Z,72.25
2022-10-12T08:02:10.740Z,72.34
2022-10-12T08:04:38.496Z,72.65
2022-10-12T08:07:06.213Z,72.87
2022-10-12T08:09:35.861Z,72.82
2022-10-12T08:12:03.763Z,73.29
2022-10-12T08:14:31.438Z,73.29
2022-10-12T08:17:00.427Z,73.37
2022-10-12T08:19:31.747Z,73.43
2022-10-12T08:22:02.100Z,73.36
2022-10-12T08:24:29.788Z,73.01
2022-10-12T08:27:01.194Z,73.02
2022-10-12T08:29:29.379Z,73.13
2022-10-12T08:31:57.070Z,73.16
2022-10-12T08:34:26.160Z,73.22
2022-10-12T08:36:53.820Z,73.12
2022-10-12T08:39:21.821Z,73.51
2022-10-12T08:41:55.736Z,73.83
2022-10-12T08:44:33.780Z,73.68
2022-10-12T08:47:03.966Z,74.07
2022-10-12T08:49:33.433Z,74.08
2022-10-12T08:52:06.363Z,74.63
2022-10-12T08:54:39.695Z,74.89
2022-10-12T08:57:09.889Z,74.67
2022-10-12T08:59:37.678Z,74.52
2022-10-12T09:02:22.154Z,74.18
2022-10-12T09:04:55.446Z,74.63
2022-10-12T09:07:27.748Z,74.55
2022-10-12T09:10:09.818Z,75.21
2022-10-12T09:12:44.738Z,73.56
2022-10-12T09:15:16.341Z,73.22
2022-10-12T09:17:47.931Z,73.17
2022-10-12T09:20:21.356Z,73.82
2022-10-12T09:22:50.856Z,72.47
2022-10-12T09:25:19.425Z,72.17
2022-10-12T09:27:47.884Z,72.18
2022-10-12T09:30:17.315Z,71.35
2022-10-12T09:32:56.216Z,71.41
2022-10-12T09:35:25.375Z,70.45
2022-10-12T09:37:54.496Z,69.20
2022-10-12T09:40:24.428Z,69.00
2022-10-12T09:42:52.775Z,69.50
2022-10-12T09:45:21.500Z,69.00
2022-10-12T09:48:19.218Z,69.33
2022-10-12T09:50:51.486Z,69.46
2022-10-12T09:53:28.346Z,69.51
2022-10-12T09:56:05.683Z,70.61
2022-10-12T09:58:39.024Z,69.63
2022-10-12T10:01:16.495Z,68.79
2022-10-12T10:03:44.419Z,69.04
2022-10-12T10:06:15.266Z,67.38
2022-10-12T10:08:44.367Z,65.80
2022-10-12T10:11:17.275Z,68.11
2022-10-12T10:13:48.812Z,68.37
2022-10-12T10:16:17.185Z,68.29
2022-10-12T10:18:48.537Z,70.13
2022-10-12T10:21:26.242Z,68.40
2022-10-12T10:23:55.638Z,67.88
2022-10-12T10:26:25.100Z,67.91
2022-10-12T10:28:57.762Z,66.35
2022-10-12T10:31:28.037Z,65.80
2022-10-12T10:34:12.665Z,67.02
2022-10-12T10:36:46.944Z,65.48
2022-10-12T10:39:19.200Z,67.51
2022-10-12T10:41:46.879Z,66.97
2022-10-12T10:44:25.259Z,67.52
2022-10-12T10:46:53.722Z,66.26
2022-10-12T10:49:26.019Z,66.42
2022-10-12T10:51:56.889Z,67.16
2022-10-12T10:54:28.907Z,63.30
2022-10-12T10:57:00.536Z,64.52
2022-10-12T10:59:36.990Z,64.76
2022-10-12T11:02:13.151Z,65.77
2022-10-12T11:04:43.009Z,63.27
2022-10-12T11:07:19.314Z,64.48
2022-10-12T11:09:49.044Z,61.34
2022-10-12T11:12:19.650Z,63.57
2022-10-12T11:14:50.243Z,61.26
2022-10-12T11:17:21.617Z,63.62
2022-10-12T11:19:51.798Z,61.11
2022-10-12T11:22:23.313Z,61.92
2022-10-12T11:24:54.488Z,61.30
2022-10-12T11:27:26.646Z,61.59
2022-10-12T11:30:08.398Z,61.54
2022-10-12T11:32:39.465Z,62.71
2022-10-12T11:35:11.216Z,60.53
2022-10-12T11:37:41.370Z,61.98
2022-10-12T11:40:17.429Z,60.65
2022-10-12T11:42:45.079Z,62.24
2022-10-12T11:45:20.331Z,61.03
2022-10-12T11:47:49.234Z,61.05
2022-10-12T11:50:26.409Z,59.72
2022-10-12T11:52:56.024Z,60.84
2022-10-12T11:55:36.806Z,59.59
2022-10-12T11:58:13.262Z,60.04
2022-10-12T12:00:51.169Z,58.76
2022-10-12T12:03:22.287Z,58.13
2022-10-12T12:05:49.994Z,57.53
2022-10-12T12:08:57.957Z,55.80
2022-10-12T12:11:27.158Z,57.29
2022-10-12T12:14:47.630Z,56.57
2022-10-12T12:17:26.912Z,56.20
2022-10-12T12:19:59.401Z,56.54
2022-10-12T12:22:32.513Z,55.46
2022-10-12T12:25:21.581Z,56.05
2022-10-12T12:27:52.191Z,55.81
2022-10-12T12:30:33.228Z,56.81
2022-10-12T12:33:02.629Z,56.51
2022-10-12T12:35:33.645Z,55.62
2022-10-12T12:38:20.438Z,55.29
2022-10-12T12:41:01.606Z,56.34
2022-10-12T12:43:57.264Z,55.06
2022-10-12T12:46:27.787Z,55.89
2022-10-12T12:49:00.887Z,54.96
2022-10-12T12:51:37.872Z,55.09
2022-10-12T12:54:08.050Z,55.45
2022-10-12T12:56:42.517Z,55.40
2022-10-12T12:59:25.732Z,55.37
2022-10-12T13:02:10.405Z,56.23
2022-10-12T13:05:11.582Z,54.83
2022-10-12T13:07:52.773Z,54.61
2022-10-12T13:10:40.678Z,53.96
2022-10-12T13:13:29.423Z,54.16
2022-10-12T13:16:11.759Z,53.48
2022-10-12T13:18:50.976Z,53.37
2022-10-12T13:21:20.117Z,53.67
2022-10-12T13:23:50.139Z,53.74
2022-10-12T13:26:22.593Z,53.15
2022-10-12T13:28:52.181Z,51.88
2022-10-12T13:31:21.728Z,53.09
2022-10-12T13:33:55.284Z,52.34
2022-10-12T13:36:26.190Z,52.80
2022-10-12T13:38:56.877Z,52.24
2022-10-12T13:41:25.539Z,52.79
2022-10-12T13:43:56.803Z,53.10
2022-10-12T13:46:40.831Z,53.12
2022-10-12T13:49:15.511Z,52.91
2022-10-12T13:51:44.598Z,51.82
2022-10-12T13:54:19.416Z,52.24
2022-10-12T13:56:48.063Z,51.93
2022-10-12T13:59:19.555Z,52.64
2022-10-12T14:01:52.134Z,52.09
2022-10-12T14:04:20.308Z,52.74
2022-10-12T14:06:49.561Z,53.02
2022-10-12T14:09:19.967Z,52.66
2022-10-12T14:11:48.264Z,53.45
2022-10-12T14:14:20.986Z,52.16
2022-10-12T14:16:56.914Z,51.78
2022-10-12T14:19:36.065Z,52.69
2022-10-12T14:22:04.164Z,52.39
2022-10-12T14:24:32.352Z,52.90
2022-10-12T14:27:01.354Z,53.23
2022-10-12T14:29:34.427Z,53.01
2022-10-12T14:32:03.476Z,52.57
2022-10-12T14:34:40.882Z,52.73
2022-10-12T14:37:25.086Z,52.89
2022-10-12T14:39:59.785Z,52.67
2022-10-12T14:42:32.759Z,52.14
2022-10-12T14:45:02.575Z,52.33
2022-10-12T14:50:00.703Z,53.50
2022-10-12T14:52:31.110Z,52.60
2022-10-12T14:55:00.125Z,52.36
2022-10-12T14:57:30.246Z,52.42
2022-10-12T14:59:58.182Z,52.94
2022-10-12T15:02:27.863Z,53.49
2022-10-12T15:04:56.303Z,53.98
2022-10-12T15:08:18.823Z,53.04
2022-10-12T15:10:46.908Z,52.62
2022-10-12T15:13:14.623Z,53.22
2022-10-12T15:15:44.216Z,53.07
2022-10-12T15:18:11.890Z,53.65
2022-10-12T15:20:39.799Z,53.46
2022-10-12T15:23:07.943Z,53.46
2022-10-12T15:25:43.777Z,54.32
2022-10-12T15:28:11.522Z,54.05
2022-10-12T15:30:52.056Z,55.55
2022-10-12T15:33:26.091Z,56.01
2022-10-12T15:35:53.735Z,56.63
2022-10-12T15:38:22.387Z,56.52
2022-10-12T15:40:52.750Z,57.27
2022-10-12T15:43:20.723Z,57.51
2022-10-12T15:45:48.562Z,56.97
2022-10-12T15:48:16.314Z,57.04
2022-10-12T15:50:45.546Z,57.13
2022-10-12T15:53:15.899Z,57.38
2022-10-12T15:55:43.580Z,58.42
2022-10-12T15:58:12.699Z,58.28
2022-10-12T16:00:40.813Z,57.44
2022-10-12T16:03:08.679Z,57.67
2022-10-12T16:05:37.958Z,57.96
2022-10-12T16:08:06.491Z,57.37
2022-10-12T16:10:36.824Z,57.67
2022-10-12T16:13:06.710Z,57.60
2022-10-12T16:15:37.194Z,57.69
2022-10-12T16:18:06.920Z,58.51
2022-10-12T16:20:37.084Z,58.42
2022-10-12T16:23:06.237Z,58.60
2022-10-12T16:25:34.080Z,59.41
2022-10-12T16:28:01.800Z,59.21
2022-10-12T16:30:29.466Z,59.74
2022-10-12T16:32:58.573Z,59.14
2022-10-12T16:35:26.262Z,59.72
2022-10-12T16:37:53.901Z,59.39
2022-10-12T16:40:21.550Z,60.00
2022-10-12T16:42:53.250Z,59.89
2022-10-12T16:45:20.968Z,60.88
2022-10-12T16:47:50.363Z,60.21
2022-10-12T16:50:20.563Z,60.92
2022-10-12T16:52:48.300Z,60.96
2022-10-12T16:55:16.345Z,61.23
2022-10-12T16:57:44.043Z,61.34
2022-10-12T17:00:14.586Z,61.55
2022-10-12T17:02:42.220Z,62.05
2022-10-12T17:05:10.303Z,62.36
2022-10-12T17:07:39.326Z,62.87
2022-10-12T17:10:07.802Z,62.97
2022-10-12T17:12:36.214Z,63.17
2022-10-12T17:15:03.976Z,63.20
2022-10-12T17:17:31.631Z,63.55
2022-10-12T17:19:59.362Z,63.73
2022-10-12T17:22:27.073Z,62.73
2022-10-12T17:24:56.084Z,63.45
2022-10-12T17:27:25.578Z,63.49
2022-10-12T17:29:56.296Z,64.00
2022-10-12T17:32:23.982Z,63.94
2022-10-12T17:34:51.649Z,64.56
2022-10-12T17:37:19.491Z,64.40
2022-10-12T17:39:48.395Z,63.69
2022-10-12T17:42:18.717Z,63.52
2022-10-12T17:44:46.560Z,63.42
2022-10-12T17:47:14.732Z,64.60
2022-10-12T17:49:42.646Z,64.78
2022-10-12T17:52:10.269Z,64.67
2022-10-12T17:54:38.147Z,65.00
2022-10-12T17:57:05.779Z,64.96
2022-10-12T17:59:34.874Z,65.15
2022-10-12T18:02:02.567Z,64.74
2022-10-12T18:04:30.234Z,64.27
2022-10-12T18:06:57.886Z,64.71
2022-10-12T18:09:25.558Z,65.21
2022-10-12T18:11:54.392Z,65.09
2022-10-12T18:14:22.083Z,65.41
2022-10-12T18:16:51.095Z,65.60
2022-10-12T18:19:18.795Z,65.02
2022-10-12T18:21:46.528Z,64.78
2022-10-12T18:24:17.438Z,64.77
2022-10-12T18:26:46.216Z,65.06
2022-10-12T18:29:13.969Z,65.76
2022-10-12T18:31:41.666Z,64.96
2022-10-12T18:34:10.914Z,65.01
2022-10-12T18:36:39.855Z,65.20
2022-10-12T18:39:07.550Z,65.78
2022-10-12T18:41:35.241Z,64.95
2022-10-12T18:44:03.679Z,65.21
2022-10-12T18:46:33.298Z,65.29
2022-10-12T18:49:02.752Z,65.53
2022-10-12T18:51:33.117Z,65.37
2022-10-12T18:54:01.829Z,65.49
2022-10-12T18:56:30.261Z,65.39
2022-10-12T18:58:59.641Z,65.53
2022-10-12T19:01:28.926Z,65.65
2022-10-12T19:03:58.032Z,65.75
2022-10-12T19:06:28.534Z,65.85
2022-10-12T19:08:58.022Z,65.65
2022-10-12T19:11:27.213Z,65.84
2022-10-12T19:13:57.016Z,65.71
2022-10-12T19:16:25.043Z,65.96
2022-10-12T19:18:57.300Z,65.96
2022-10-12T19:21:25.142Z,65.85
2022-10-12T19:23:52.784Z,65.94
2022-10-12T19:26:24.207Z,65.33
2022-10-12T19:28:52.223Z,65.89
2022-10-12T19:31:22.026Z,66.19
2022-10-12T19:33:49.776Z,65.71
2022-10-12T19:36:18.889Z,65.55
2022-10-12T19:38:46.900Z,65.34
2022-10-12T19:41:15.044Z,65.82
2022-10-12T19:43:44.178Z,65.20
2022-10-12T19:46:13.323Z,65.26
2022-10-12T19:48:42.027Z,65.10
2022-10-12T19:51:11.995Z,65.29
2022-10-12T19:53:40.802Z,65.33
2022-10-12T19:56:10.340Z,65.95
2022-10-12T19:58:38.066Z,66.08
2022-10-12T20:01:08.629Z,66.48
2022-10-12T20:03:36.881Z,66.43
2022-10-12T20:06:07.866Z,66.22
2022-10-12T20:08:36.350Z,66.25
2022-10-12T20:11:04.087Z,66.56
2022-10-12T20:13:32.151Z,66.40
2022-10-12T20:16:00.095Z,66.60
2022-10-12T20:18:30.487Z,66.68
2022-10-12T20:20:58.488Z,66.47
2022-10-12T20:23:26.236Z,66.23
2022-10-12T20:25:55.165Z,66.75
2022-10-12T20:28:23.616Z,66.57
2022-10-12T20:30:51.624Z,66.48
2022-10-12T20:33:19.301Z,66.52
2022-10-12T20:35:49.274Z,66.37
2022-10-12T20:38:17.486Z,66.58
2022-10-12T20:40:45.862Z,66.02
2022-10-12T20:43:13.757Z,66.15
2022-10-12T20:45:41.458Z,66.00
2022-10-12T20:48:09.686Z,66.19
2022-10-12T20:50:38.289Z,66.21
2022-10-12T20:53:07.754Z,66.05
2022-10-12T20:55:35.424Z,66.45
2022-10-12T20:58:03.091Z,66.17
2022-10-12T21:00:30.982Z,66.17
2022-10-12T21:02:58.810Z,66.02
2022-10-12T21:05:26.526Z,66.25
2022-10-12T21:07:54.222Z,65.96
2022-10-12T21:10:23.293Z,66.14
2022-10-12T21:12:50.954Z,66.34
2022-10-12T21:15:18.708Z,65.99
2022-10-12T21:17:46.402Z,65.98
2022-10-12T21:20:14.160Z,66.04
2022-10-12T21:22:41.830Z,66.22
2022-10-12T21:25:10.042Z,66.26
2022-10-12T21:27:39.243Z,66.39
2022-10-12T21:30:07.830Z,66.77
2022-10-12T21:32:35.578Z,67.03
2022-10-12T21:35:03.287Z,66.92
2022-10-12T21:37:30.958Z,67.17
2022-10-12T21:39:58.596Z,67.24
2022-10-12T21:42:26.235Z,67.15
2022-10-12T21:44:55.370Z,67.08
2022-10-12T21:47:23.012Z,66.87
2022-10-12T21:49:50.617Z,66.88
2022-10-12T21:52:18.588Z,67.06
2022-10-12T21:54:46.976Z,66.93
2022-10-12T21:57:14.656Z,66.40
2022-10-12T21:59:42.266Z,66.69
2022-10-12T22:02:11.269Z,67.05
2022-10-12T22:04:38.895Z,66.86
2022-10-12T22:07:06.709Z,67.05
2022-10-12T22:09:34.322Z,67.21
2022-10-12T22:12:01.972Z,66.74
2022-10-12T22:14:29.750Z,67.29
2022-10-12T22:16:57.385Z,67.44
2022-10-12T22:19:26.455Z,67.04
2022-10-12T22:21:54.582Z,67.13
2022-10-12T22:24:22.371Z,67.60
2022-10-12T22:26:50.109Z,67.30
2022-10-12T22:29:17.731Z,67.60
2022-10-12T22:31:46.375Z,67.93
2022-10-12T22:34:14.069Z,67.58
2022-10-12T22:36:44.121Z,67.72
2022-10-12T22:39:11.839Z,68.05
2022-10-12T22:41:39.524Z,68.05
2022-10-12T22:44:07.645Z,68.15
2022-10-12T22:46:35.336Z,68.38
2022-10-12T22:49:03.385Z,68.16
2022-10-12T22:51:32.447Z,68.41
2022-10-12T22:54:02.138Z,68.56
2022-10-12T22:56:30.313Z,68.65
2022-10-12T22:58:59.145Z,68.76
2022-10-12T23:01:27.378Z,68.65
2022-10-12T23:03:55.879Z,69.02
2022-10-12T23:06:23.729Z,68.95
2022-10-12T23:08:51.468Z,69.12
2022-10-12T23:11:22.181Z,69.09
2022-10-12T23:13:50.182Z,68.91
2022-10-12T23:16:19.764Z,69.13
2022-10-12T23:18:47.537Z,68.71
2022-10-12T23:21:16.882Z,69.00
2022-10-12T23:23:45.925Z,68.57
2022-10-12T23:26:15.487Z,68.87
2022-10-12T23:28:44.941Z,68.55
2022-10-12T23:31:14.374Z,68.84
2022-10-12T23:33:42.071Z,69.07
2022-10-12T23:36:12.727Z,68.90
2022-10-12T23:38:41.382Z,68.83
2022-10-12T23:41:09.643Z,68.85
2022-10-12T23:43:37.558Z,68.85
2022-10-12T23:46:07.050Z,68.97
2022-10-12T23:48:35.311Z,69.09
2022-10-12T23:51:03.354Z,68.94
2022-10-12T23:53:31.027Z,69.08
2022-10-12T23:55:58.679Z,69.18
2022-10-12T23:58:26.432Z,69.30
